sensor_id;sensor_type;location;lat;lon;timestamp;temperature;humidity
22321;DHT22;11328;53.928;18.522;2022-09-09T00:00:16;17.40;89.80
22321;DHT22;11328;53.928;18.522;2022-09-09T00:02:54;17.50;89.50
22321;DHT22;11328;53.928;18.522;2022-09-09T00:05:45;17.50;89.60
22321;DHT22;11328;53.928;18.522;2022-09-09T00:08:40;17.50;89.40
22321;DHT22;11328;53.928;18.522;2022-09-09T00:11:20;17.50;89.50
22321;DHT22;11328;53.928;18.522;2022-09-09T00:14:00;17.50;89.60
22321;DHT22;11328;53.928;18.522;2022-09-09T00:16:37;17.60;90.10
22321;DHT22;11328;53.928;18.522;2022-09-09T00:30:25;17.60;89.70
22321;DHT22;11328;53.928;18.522;2022-09-09T00:32:57;17.70;89.80
22321;DHT22;11328;53.928;18.522;2022-09-09T00:35:34;17.70;89.90
22321;DHT22;11328;53.928;18.522;2022-09-09T00:38:16;17.70;89.90
22321;DHT22;11328;53.928;18.522;2022-09-09T00:49:59;17.70;90.00
22321;DHT22;11328;53.928;18.522;2022-09-09T00:52:43;17.80;90.10
22321;DHT22;11328;53.928;18.522;2022-09-09T00:55:54;17.70;90.10
22321;DHT22;11328;53.928;18.522;2022-09-09T00:58:33;17.70;90.10
22321;DHT22;11328;53.928;18.522;2022-09-09T01:03:53;17.80;90.30
22321;DHT22;11328;53.928;18.522;2022-09-09T01:06:29;17.80;90.30
22321;DHT22;11328;53.928;18.522;2022-09-09T01:14:49;17.80;90.30
22321;DHT22;11328;53.928;18.522;2022-09-09T01:17:28;17.90;90.30
22321;DHT22;11328;53.928;18.522;2022-09-09T01:23:04;17.80;92.00
22321;DHT22;11328;53.928;18.522;2022-09-09T01:28:48;17.60;94.00
22321;DHT22;11328;53.928;18.522;2022-09-09T01:31:26;17.50;96.10
22321;DHT22;11328;53.928;18.522;2022-09-09T01:33:56;17.30;97.70
22321;DHT22;11328;53.928;18.522;2022-09-09T01:36:39;17.10;99.10
22321;DHT22;11328;53.928;18.522;2022-09-09T01:39:11;17.00;99.90
22321;DHT22;11328;53.928;18.522;2022-09-09T01:41:38;17.00;99.90
22321;DHT22;11328;53.928;18.522;2022-09-09T01:44:07;16.80;99.90
22321;DHT22;11328;53.928;18.522;2022-09-09T01:46:35;16.70;99.90
22321;DHT22;11328;53.928;18.522;2022-09-09T01:49:04;16.70;99.90
22321;DHT22;11328;53.928;18.522;2022-09-09T01:51:35;16.70;99.90
22321;DHT22;11328;53.928;18.522;2022-09-09T01:54:06;16.70;99.90
22321;DHT22;11328;53.928;18.522;2022-09-09T01:56:44;16.70;99.90
22321;DHT22;11328;53.928;18.522;2022-09-09T02:03:00;16.80;99.90
22321;DHT22;11328;53.928;18.522;2022-09-09T02:05:38;16.80;99.90
22321;DHT22;11328;53.928;18.522;2022-09-09T02:08:10;16.80;99.90
22321;DHT22;11328;53.928;18.522;2022-09-09T02:11:01;16.80;99.90
22321;DHT22;11328;53.928;18.522;2022-09-09T02:13:34;16.70;99.90
22321;DHT22;11328;53.928;18.522;2022-09-09T02:18:54;16.50;99.90
22321;DHT22;11328;53.928;18.522;2022-09-09T02:21:30;16.50;99.90
22321;DHT22;11328;53.928;18.522;2022-09-09T02:24:02;16.50;99.90
22321;DHT22;11328;53.928;18.522;2022-09-09T02:26:33;16.40;99.90
22321;DHT22;11328;53.928;18.522;2022-09-09T02:29:05;16.30;99.90
22321;DHT22;11328;53.928;18.522;2022-09-09T02:31:36;16.20;99.90
22321;DHT22;11328;53.928;18.522;2022-09-09T02:34:08;16.10;99.90
22321;DHT22;11328;53.928;18.522;2022-09-09T02:36:40;16.00;99.90
22321;DHT22;11328;53.928;18.522;2022-09-09T02:39:10;15.80;99.90
22321;DHT22;11328;53.928;18.522;2022-09-09T02:41:40;15.70;99.90
22321;DHT22;11328;53.928;18.522;2022-09-09T02:44:13;15.60;99.90
22321;DHT22;11328;53.928;18.522;2022-09-09T02:52:46;15.40;99.90
22321;DHT22;11328;53.928;18.522;2022-09-09T02:55:41;15.20;99.90
22321;DHT22;11328;53.928;18.522;2022-09-09T02:58:16;15.10;99.90
22321;DHT22;11328;53.928;18.522;2022-09-09T03:00:49;15.00;99.90
22321;DHT22;11328;53.928;18.522;2022-09-09T03:03:18;15.00;99.90
22321;DHT22;11328;53.928;18.522;2022-09-09T03:05:46;14.80;99.90
22321;DHT22;11328;53.928;18.522;2022-09-09T03:08:13;14.80;99.90
22321;DHT22;11328;53.928;18.522;2022-09-09T03:10:40;14.70;99.90
22321;DHT22;11328;53.928;18.522;2022-09-09T03:13:07;14.60;99.90
22321;DHT22;11328;53.928;18.522;2022-09-09T03:15:35;14.60;99.90
22321;DHT22;11328;53.928;18.522;2022-09-09T03:18:02;14.60;99.90
22321;DHT22;11328;53.928;18.522;2022-09-09T03:20:29;14.60;99.90
22321;DHT22;11328;53.928;18.522;2022-09-09T03:22:59;14.60;99.90
22321;DHT22;11328;53.928;18.522;2022-09-09T03:25:27;14.50;99.90
22321;DHT22;11328;53.928;18.522;2022-09-09T03:27:55;14.50;99.90
22321;DHT22;11328;53.928;18.522;2022-09-09T03:30:24;14.50;99.90
22321;DHT22;11328;53.928;18.522;2022-09-09T03:32:52;14.50;99.90
22321;DHT22;11328;53.928;18.522;2022-09-09T03:35:20;14.50;99.90
22321;DHT22;11328;53.928;18.522;2022-09-09T03:37:47;14.50;99.90
22321;DHT22;11328;53.928;18.522;2022-09-09T03:40:14;14.50;99.90
22321;DHT22;11328;53.928;18.522;2022-09-09T03:42:41;14.50;99.90
22321;DHT22;11328;53.928;18.522;2022-09-09T03:45:09;14.60;99.90
22321;DHT22;11328;53.928;18.522;2022-09-09T03:47:38;14.60;99.90
22321;DHT22;11328;53.928;18.522;2022-09-09T03:50:06;14.60;99.90
22321;DHT22;11328;53.928;18.522;2022-09-09T03:52:37;14.60;99.90
22321;DHT22;11328;53.928;18.522;2022-09-09T03:55:05;14.50;99.90
22321;DHT22;11328;53.928;18.522;2022-09-09T03:57:33;14.50;99.90
22321;DHT22;11328;53.928;18.522;2022-09-09T04:00:03;14.50;99.90
22321;DHT22;11328;53.928;18.522;2022-09-09T04:02:31;14.50;99.90
22321;DHT22;11328;53.928;18.522;2022-09-09T04:04:58;14.50;99.90
22321;DHT22;11328;53.928;18.522;2022-09-09T04:07:26;14.50;99.90
22321;DHT22;11328;53.928;18.522;2022-09-09T04:09:54;14.40;99.90
22321;DHT22;11328;53.928;18.522;2022-09-09T04:12:21;14.40;99.90
22321;DHT22;11328;53.928;18.522;2022-09-09T04:14:48;14.40;99.90
22321;DHT22;11328;53.928;18.522;2022-09-09T04:17:16;14.40;99.90
22321;DHT22;11328;53.928;18.522;2022-09-09T04:19:43;14.30;99.90
22321;DHT22;11328;53.928;18.522;2022-09-09T04:22:10;14.20;99.90
22321;DHT22;11328;53.928;18.522;2022-09-09T04:24:37;14.30;99.90
22321;DHT22;11328;53.928;18.522;2022-09-09T04:27:04;14.20;99.90
22321;DHT22;11328;53.928;18.522;2022-09-09T04:29:31;14.10;99.90
22321;DHT22;11328;53.928;18.522;2022-09-09T04:31:58;14.00;99.90
22321;DHT22;11328;53.928;18.522;2022-09-09T04:34:26;13.90;99.90
22321;DHT22;11328;53.928;18.522;2022-09-09T04:36:53;13.80;99.90
22321;DHT22;11328;53.928;18.522;2022-09-09T04:39:20;13.80;99.90
22321;DHT22;11328;53.928;18.522;2022-09-09T04:41:46;13.80;99.90
22321;DHT22;11328;53.928;18.522;2022-09-09T04:44:13;13.80;99.90
22321;DHT22;11328;53.928;18.522;2022-09-09T04:46:40;13.80;99.90
22321;DHT22;11328;53.928;18.522;2022-09-09T04:49:07;13.80;99.90
22321;DHT22;11328;53.928;18.522;2022-09-09T04:51:40;13.80;99.90
22321;DHT22;11328;53.928;18.522;2022-09-09T04:54:07;13.80;99.90
22321;DHT22;11328;53.928;18.522;2022-09-09T04:56:34;13.80;99.90
22321;DHT22;11328;53.928;18.522;2022-09-09T04:59:01;13.80;99.90
22321;DHT22;11328;53.928;18.522;2022-09-09T05:01:29;13.70;99.90
22321;DHT22;11328;53.928;18.522;2022-09-09T05:03:56;13.70;99.90
22321;DHT22;11328;53.928;18.522;2022-09-09T05:06:23;13.60;99.90
22321;DHT22;11328;53.928;18.522;2022-09-09T05:08:51;13.60;99.90
22321;DHT22;11328;53.928;18.522;2022-09-09T05:13:54;13.70;99.90
22321;DHT22;11328;53.928;18.522;2022-09-09T05:16:21;13.70;99.90
22321;DHT22;11328;53.928;18.522;2022-09-09T05:18:49;13.70;99.90
22321;DHT22;11328;53.928;18.522;2022-09-09T05:21:21;13.60;99.90
22321;DHT22;11328;53.928;18.522;2022-09-09T05:23:49;13.70;99.90
22321;DHT22;11328;53.928;18.522;2022-09-09T05:26:19;13.60;99.90
22321;DHT22;11328;53.928;18.522;2022-09-09T05:28:48;13.60;99.90
22321;DHT22;11328;53.928;18.522;2022-09-09T05:31:16;13.60;99.90
22321;DHT22;11328;53.928;18.522;2022-09-09T05:33:46;13.50;99.90
22321;DHT22;11328;53.928;18.522;2022-09-09T05:36:17;13.60;99.90
22321;DHT22;11328;53.928;18.522;2022-09-09T05:38:45;13.50;99.90
22321;DHT22;11328;53.928;18.522;2022-09-09T05:41:13;13.60;99.90
22321;DHT22;11328;53.928;18.522;2022-09-09T05:43:43;13.60;99.90
22321;DHT22;11328;53.928;18.522;2022-09-09T05:46:14;13.60;99.90
22321;DHT22;11328;53.928;18.522;2022-09-09T05:48:44;13.50;99.90
22321;DHT22;11328;53.928;18.522;2022-09-09T05:51:14;13.50;99.90
22321;DHT22;11328;53.928;18.522;2022-09-09T05:53:44;13.60;99.90
22321;DHT22;11328;53.928;18.522;2022-09-09T05:56:14;13.60;99.90
22321;DHT22;11328;53.928;18.522;2022-09-09T05:58:49;13.60;99.90
22321;DHT22;11328;53.928;18.522;2022-09-09T06:01:28;13.60;99.90
22321;DHT22;11328;53.928;18.522;2022-09-09T06:03:58;13.50;99.90
22321;DHT22;11328;53.928;18.522;2022-09-09T06:06:30;13.50;99.90
22321;DHT22;11328;53.928;18.522;2022-09-09T06:08:59;13.50;99.90
22321;DHT22;11328;53.928;18.522;2022-09-09T06:11:30;13.40;99.90
22321;DHT22;11328;53.928;18.522;2022-09-09T06:13:57;13.50;99.90
22321;DHT22;11328;53.928;18.522;2022-09-09T06:16:26;13.60;99.90
22321;DHT22;11328;53.928;18.522;2022-09-09T06:18:56;13.50;99.90
22321;DHT22;11328;53.928;18.522;2022-09-09T06:21:29;13.60;99.90
22321;DHT22;11328;53.928;18.522;2022-09-09T06:23:59;13.50;99.90
22321;DHT22;11328;53.928;18.522;2022-09-09T06:26:30;13.50;99.90
22321;DHT22;11328;53.928;18.522;2022-09-09T06:29:00;13.50;99.90
22321;DHT22;11328;53.928;18.522;2022-09-09T06:31:31;13.60;99.90
22321;DHT22;11328;53.928;18.522;2022-09-09T06:34:05;13.50;99.90
22321;DHT22;11328;53.928;18.522;2022-09-09T06:36:35;13.60;99.90
22321;DHT22;11328;53.928;18.522;2022-09-09T06:39:04;13.50;99.90
22321;DHT22;11328;53.928;18.522;2022-09-09T06:41:39;13.50;99.90
22321;DHT22;11328;53.928;18.522;2022-09-09T06:44:07;13.50;99.90
22321;DHT22;11328;53.928;18.522;2022-09-09T06:46:34;13.50;99.90
22321;DHT22;11328;53.928;18.522;2022-09-09T06:49:02;13.60;99.90
22321;DHT22;11328;53.928;18.522;2022-09-09T06:51:31;13.50;99.90
22321;DHT22;11328;53.928;18.522;2022-09-09T06:54:01;13.60;99.90
22321;DHT22;11328;53.928;18.522;2022-09-09T06:56:31;13.60;99.90
22321;DHT22;11328;53.928;18.522;2022-09-09T06:59:02;13.60;99.90
22321;DHT22;11328;53.928;18.522;2022-09-09T07:01:33;13.60;99.90
22321;DHT22;11328;53.928;18.522;2022-09-09T07:04:02;13.60;99.90
22321;DHT22;11328;53.928;18.522;2022-09-09T07:06:34;13.60;99.90
22321;DHT22;11328;53.928;18.522;2022-09-09T07:09:05;13.50;99.90
22321;DHT22;11328;53.928;18.522;2022-09-09T07:11:40;13.50;99.90
22321;DHT22;11328;53.928;18.522;2022-09-09T07:14:08;13.40;99.90
22321;DHT22;11328;53.928;18.522;2022-09-09T07:16:40;13.50;99.90
22321;DHT22;11328;53.928;18.522;2022-09-09T07:19:09;13.50;99.90
22321;DHT22;11328;53.928;18.522;2022-09-09T07:21:37;13.40;99.90
22321;DHT22;11328;53.928;18.522;2022-09-09T07:24:04;13.50;99.90
22321;DHT22;11328;53.928;18.522;2022-09-09T07:26:34;13.50;99.90
22321;DHT22;11328;53.928;18.522;2022-09-09T07:29:01;13.50;99.90
22321;DHT22;11328;53.928;18.522;2022-09-09T07:31:30;13.50;99.90
22321;DHT22;11328;53.928;18.522;2022-09-09T07:34:03;13.60;99.90
22321;DHT22;11328;53.928;18.522;2022-09-09T07:36:36;13.60;99.90
22321;DHT22;11328;53.928;18.522;2022-09-09T07:39:09;13.50;99.90
22321;DHT22;11328;53.928;18.522;2022-09-09T07:41:41;13.60;99.90
22321;DHT22;11328;53.928;18.522;2022-09-09T07:44:12;13.70;99.90
22321;DHT22;11328;53.928;18.522;2022-09-09T07:46:51;13.70;99.90
22321;DHT22;11328;53.928;18.522;2022-09-09T07:49:18;13.70;99.90
22321;DHT22;11328;53.928;18.522;2022-09-09T07:51:54;13.70;99.90
22321;DHT22;11328;53.928;18.522;2022-09-09T07:54:21;13.70;99.90
22321;DHT22;11328;53.928;18.522;2022-09-09T07:56:50;13.80;99.90
22321;DHT22;11328;53.928;18.522;2022-09-09T07:59:18;13.80;99.90
22321;DHT22;11328;53.928;18.522;2022-09-09T08:01:48;13.90;99.90
22321;DHT22;11328;53.928;18.522;2022-09-09T08:04:21;13.90;99.90
22321;DHT22;11328;53.928;18.522;2022-09-09T08:06:59;13.90;99.90
22321;DHT22;11328;53.928;18.522;2022-09-09T08:09:28;13.90;99.90
22321;DHT22;11328;53.928;18.522;2022-09-09T08:11:58;13.90;99.90
22321;DHT22;11328;53.928;18.522;2022-09-09T08:14:25;13.90;99.90
22321;DHT22;11328;53.928;18.522;2022-09-09T08:16:53;13.90;99.90
22321;DHT22;11328;53.928;18.522;2022-09-09T08:19:21;13.90;99.90
22321;DHT22;11328;53.928;18.522;2022-09-09T08:21:47;14.00;99.90
22321;DHT22;11328;53.928;18.522;2022-09-09T08:24:15;14.00;99.90
22321;DHT22;11328;53.928;18.522;2022-09-09T08:26:44;14.00;99.90
22321;DHT22;11328;53.928;18.522;2022-09-09T08:29:13;14.10;99.90
22321;DHT22;11328;53.928;18.522;2022-09-09T08:31:46;14.10;99.90
22321;DHT22;11328;53.928;18.522;2022-09-09T08:34:17;14.10;99.90
22321;DHT22;11328;53.928;18.522;2022-09-09T08:36:48;14.20;99.90
22321;DHT22;11328;53.928;18.522;2022-09-09T08:39:18;14.20;99.90
22321;DHT22;11328;53.928;18.522;2022-09-09T08:41:58;14.20;99.90
22321;DHT22;11328;53.928;18.522;2022-09-09T08:50:37;14.40;99.90
22321;DHT22;11328;53.928;18.522;2022-09-09T08:55:54;14.40;99.90
22321;DHT22;11328;53.928;18.522;2022-09-09T08:58:27;14.40;99.90
22321;DHT22;11328;53.928;18.522;2022-09-09T09:06:37;14.50;99.90
22321;DHT22;11328;53.928;18.522;2022-09-09T09:12:29;14.60;99.90
22321;DHT22;11328;53.928;18.522;2022-09-09T09:15:02;14.60;99.90
22321;DHT22;11328;53.928;18.522;2022-09-09T09:17:58;14.60;99.90
22321;DHT22;11328;53.928;18.522;2022-09-09T09:21:07;14.70;99.90
22321;DHT22;11328;53.928;18.522;2022-09-09T09:23:44;14.80;99.90
22321;DHT22;11328;53.928;18.522;2022-09-09T09:26:18;14.80;99.90
22321;DHT22;11328;53.928;18.522;2022-09-09T09:28:45;14.80;99.90
22321;DHT22;11328;53.928;18.522;2022-09-09T09:31:13;14.80;99.90
22321;DHT22;11328;53.928;18.522;2022-09-09T09:36:08;14.90;99.90
22321;DHT22;11328;53.928;18.522;2022-09-09T09:38:36;14.90;99.90
22321;DHT22;11328;53.928;18.522;2022-09-09T09:41:33;14.90;99.90
22321;DHT22;11328;53.928;18.522;2022-09-09T09:44:02;14.90;99.90
22321;DHT22;11328;53.928;18.522;2022-09-09T09:46:31;14.90;99.90
22321;DHT22;11328;53.928;18.522;2022-09-09T09:49:08;14.90;99.90
22321;DHT22;11328;53.928;18.522;2022-09-09T09:51:36;14.90;99.90
22321;DHT22;11328;53.928;18.522;2022-09-09T09:56:43;15.00;99.90
22321;DHT22;11328;53.928;18.522;2022-09-09T09:59:33;15.00;99.90
22321;DHT22;11328;53.928;18.522;2022-09-09T10:02:17;15.00;99.90
22321;DHT22;11328;53.928;18.522;2022-09-09T10:05:27;15.00;99.90
22321;DHT22;11328;53.928;18.522;2022-09-09T10:08:10;15.00;99.90
22321;DHT22;11328;53.928;18.522;2022-09-09T10:14:06;15.10;99.90
22321;DHT22;11328;53.928;18.522;2022-09-09T10:22:51;15.20;99.90
22321;DHT22;11328;53.928;18.522;2022-09-09T10:25:43;15.20;99.90
22321;DHT22;11328;53.928;18.522;2022-09-09T10:35:09;15.30;99.90
22321;DHT22;11328;53.928;18.522;2022-09-09T10:38:16;15.40;99.90
22321;DHT22;11328;53.928;18.522;2022-09-09T10:52:01;15.30;99.90
22321;DHT22;11328;53.928;18.522;2022-09-09T10:55:07;15.30;99.90
22321;DHT22;11328;53.928;18.522;2022-09-09T10:57:45;15.30;99.90
22321;DHT22;11328;53.928;18.522;2022-09-09T11:00:40;15.40;99.90
22321;DHT22;11328;53.928;18.522;2022-09-09T11:03:24;15.50;99.90
22321;DHT22;11328;53.928;18.522;2022-09-09T11:06:02;15.50;99.90
22321;DHT22;11328;53.928;18.522;2022-09-09T11:08:42;15.50;99.90
22321;DHT22;11328;53.928;18.522;2022-09-09T11:11:17;15.60;99.90
22321;DHT22;11328;53.928;18.522;2022-09-09T11:13:51;15.50;99.90
22321;DHT22;11328;53.928;18.522;2022-09-09T11:16:51;15.50;99.90
22321;DHT22;11328;53.928;18.522;2022-09-09T11:19:29;15.60;99.90
22321;DHT22;11328;53.928;18.522;2022-09-09T11:22:14;15.50;99.90
22321;DHT22;11328;53.928;18.522;2022-09-09T11:25:20;15.60;99.90
22321;DHT22;11328;53.928;18.522;2022-09-09T11:37:01;15.70;99.90
22321;DHT22;11328;53.928;18.522;2022-09-09T11:42:29;15.70;99.90
22321;DHT22;11328;53.928;18.522;2022-09-09T11:44:56;15.60;99.90
22321;DHT22;11328;53.928;18.522;2022-09-09T11:47:26;15.70;99.90
22321;DHT22;11328;53.928;18.522;2022-09-09T11:50:28;15.70;99.90
22321;DHT22;11328;53.928;18.522;2022-09-09T11:53:15;15.70;99.90
22321;DHT22;11328;53.928;18.522;2022-09-09T11:55:47;15.70;99.90
22321;DHT22;11328;53.928;18.522;2022-09-09T11:58:25;15.60;99.90
22321;DHT22;11328;53.928;18.522;2022-09-09T12:00:54;15.70;99.90
22321;DHT22;11328;53.928;18.522;2022-09-09T12:03:50;15.70;99.90
22321;DHT22;11328;53.928;18.522;2022-09-09T12:06:32;15.70;99.90
22321;DHT22;11328;53.928;18.522;2022-09-09T12:09:15;15.60;99.90
22321;DHT22;11328;53.928;18.522;2022-09-09T12:12:06;15.60;99.90
22321;DHT22;11328;53.928;18.522;2022-09-09T12:14:43;15.60;99.90
22321;DHT22;11328;53.928;18.522;2022-09-09T12:17:28;15.70;99.90
22321;DHT22;11328;53.928;18.522;2022-09-09T12:26:05;15.60;99.90
22321;DHT22;11328;53.928;18.522;2022-09-09T12:28:56;15.70;99.90
22321;DHT22;11328;53.928;18.522;2022-09-09T12:39:59;15.70;99.90
22321;DHT22;11328;53.928;18.522;2022-09-09T12:42:29;15.70;99.90
22321;DHT22;11328;53.928;18.522;2022-09-09T12:44:58;15.70;99.90
22321;DHT22;11328;53.928;18.522;2022-09-09T12:47:38;15.80;99.90
22321;DHT22;11328;53.928;18.522;2022-09-09T12:50:16;15.80;99.90
22321;DHT22;11328;53.928;18.522;2022-09-09T12:52:49;15.70;99.90
22321;DHT22;11328;53.928;18.522;2022-09-09T12:55:21;15.70;99.90
22321;DHT22;11328;53.928;18.522;2022-09-09T12:57:52;15.70;99.90
22321;DHT22;11328;53.928;18.522;2022-09-09T13:00:21;15.70;99.90
22321;DHT22;11328;53.928;18.522;2022-09-09T13:02:53;15.70;99.90
22321;DHT22;11328;53.928;18.522;2022-09-09T13:05:48;15.70;99.90
22321;DHT22;11328;53.928;18.522;2022-09-09T13:08:15;15.80;99.90
22321;DHT22;11328;53.928;18.522;2022-09-09T13:11:00;15.80;99.90
22321;DHT22;11328;53.928;18.522;2022-09-09T13:13:42;15.90;99.90
22321;DHT22;11328;53.928;18.522;2022-09-09T13:16:28;15.90;99.90
22321;DHT22;11328;53.928;18.522;2022-09-09T13:19:08;16.00;99.90
22321;DHT22;11328;53.928;18.522;2022-09-09T13:21:39;16.00;99.90
22321;DHT22;11328;53.928;18.522;2022-09-09T13:26:58;16.00;99.90
22321;DHT22;11328;53.928;18.522;2022-09-09T13:29:29;16.00;99.90
22321;DHT22;11328;53.928;18.522;2022-09-09T13:32:06;16.00;99.90
22321;DHT22;11328;53.928;18.522;2022-09-09T13:34:51;16.10;99.90
22321;DHT22;11328;53.928;18.522;2022-09-09T13:37:36;16.10;99.90
22321;DHT22;11328;53.928;18.522;2022-09-09T13:40:06;16.10;99.90
22321;DHT22;11328;53.928;18.522;2022-09-09T13:42:44;16.20;99.90
22321;DHT22;11328;53.928;18.522;2022-09-09T13:45:18;16.20;99.90
22321;DHT22;11328;53.928;18.522;2022-09-09T13:47:47;16.20;99.90
22321;DHT22;11328;53.928;18.522;2022-09-09T13:50:24;16.20;99.90
22321;DHT22;11328;53.928;18.522;2022-09-09T13:52:54;16.20;99.90
22321;DHT22;11328;53.928;18.522;2022-09-09T13:55:24;16.20;99.90
22321;DHT22;11328;53.928;18.522;2022-09-09T14:00:25;16.40;99.90
22321;DHT22;11328;53.928;18.522;2022-09-09T14:02:52;16.50;99.90
22321;DHT22;11328;53.928;18.522;2022-09-09T14:05:22;16.50;99.90
22321;DHT22;11328;53.928;18.522;2022-09-09T14:07:49;16.60;99.90
22321;DHT22;11328;53.928;18.522;2022-09-09T14:10:19;16.60;99.90
22321;DHT22;11328;53.928;18.522;2022-09-09T14:12:46;16.60;99.90
22321;DHT22;11328;53.928;18.522;2022-09-09T14:15:13;16.60;99.90
22321;DHT22;11328;53.928;18.522;2022-09-09T14:17:41;16.60;99.90
22321;DHT22;11328;53.928;18.522;2022-09-09T14:20:10;16.60;99.90
22321;DHT22;11328;53.928;18.522;2022-09-09T14:22:38;16.70;99.90
22321;DHT22;11328;53.928;18.522;2022-09-09T14:25:08;16.70;99.90
22321;DHT22;11328;53.928;18.522;2022-09-09T14:27:35;16.60;99.90
22321;DHT22;11328;53.928;18.522;2022-09-09T14:30:02;16.70;99.90
22321;DHT22;11328;53.928;18.522;2022-09-09T14:32:30;16.70;99.90
22321;DHT22;11328;53.928;18.522;2022-09-09T14:34:57;16.70;99.90
22321;DHT22;11328;53.928;18.522;2022-09-09T14:37:24;16.70;99.90
22321;DHT22;11328;53.928;18.522;2022-09-09T14:39:52;16.70;99.90
22321;DHT22;11328;53.928;18.522;2022-09-09T14:42:20;16.70;99.90
22321;DHT22;11328;53.928;18.522;2022-09-09T14:44:48;16.80;99.90
22321;DHT22;11328;53.928;18.522;2022-09-09T14:47:15;16.70;99.90
22321;DHT22;11328;53.928;18.522;2022-09-09T14:49:42;16.70;99.90
22321;DHT22;11328;53.928;18.522;2022-09-09T14:52:12;16.70;99.90
22321;DHT22;11328;53.928;18.522;2022-09-09T14:54:39;16.70;99.90
22321;DHT22;11328;53.928;18.522;2022-09-09T14:57:06;16.70;99.90
22321;DHT22;11328;53.928;18.522;2022-09-09T14:59:33;16.70;99.90
22321;DHT22;11328;53.928;18.522;2022-09-09T15:02:00;16.70;99.90
22321;DHT22;11328;53.928;18.522;2022-09-09T15:04:31;16.80;99.90
22321;DHT22;11328;53.928;18.522;2022-09-09T15:06:58;16.90;99.90
22321;DHT22;11328;53.928;18.522;2022-09-09T15:09:25;16.80;99.90
22321;DHT22;11328;53.928;18.522;2022-09-09T15:11:52;16.70;99.90
22321;DHT22;11328;53.928;18.522;2022-09-09T15:14:19;16.60;99.90
22321;DHT22;11328;53.928;18.522;2022-09-09T15:16:51;16.70;99.90
22321;DHT22;11328;53.928;18.522;2022-09-09T15:19:18;16.60;99.90
22321;DHT22;11328;53.928;18.522;2022-09-09T15:21:45;16.60;99.90
22321;DHT22;11328;53.928;18.522;2022-09-09T15:24:12;16.50;99.90
22321;DHT22;11328;53.928;18.522;2022-09-09T15:26:40;16.50;99.90
22321;DHT22;11328;53.928;18.522;2022-09-09T15:29:07;16.50;99.90
22321;DHT22;11328;53.928;18.522;2022-09-09T15:31:35;16.40;99.90
22321;DHT22;11328;53.928;18.522;2022-09-09T15:34:05;16.40;99.90
22321;DHT22;11328;53.928;18.522;2022-09-09T15:39:10;16.50;99.90
22321;DHT22;11328;53.928;18.522;2022-09-09T15:41:39;16.50;99.90
22321;DHT22;11328;53.928;18.522;2022-09-09T15:44:07;16.50;99.90
22321;DHT22;11328;53.928;18.522;2022-09-09T15:49:24;16.40;99.90
22321;DHT22;11328;53.928;18.522;2022-09-09T15:51:55;16.50;99.90
22321;DHT22;11328;53.928;18.522;2022-09-09T15:54:25;16.40;99.90
22321;DHT22;11328;53.928;18.522;2022-09-09T15:56:55;16.50;99.90
22321;DHT22;11328;53.928;18.522;2022-09-09T15:59:27;16.40;99.90
22321;DHT22;11328;53.928;18.522;2022-09-09T16:02:02;16.40;99.90
22321;DHT22;11328;53.928;18.522;2022-09-09T16:04:29;16.40;99.90
22321;DHT22;11328;53.928;18.522;2022-09-09T16:07:03;16.50;99.90
22321;DHT22;11328;53.928;18.522;2022-09-09T16:09:32;16.60;99.90
22321;DHT22;11328;53.928;18.522;2022-09-09T16:12:00;16.60;99.90
22321;DHT22;11328;53.928;18.522;2022-09-09T16:14:29;16.60;99.90
22321;DHT22;11328;53.928;18.522;2022-09-09T16:17:00;16.60;99.90
22321;DHT22;11328;53.928;18.522;2022-09-09T16:19:29;16.50;99.90
22321;DHT22;11328;53.928;18.522;2022-09-09T16:21:56;16.60;99.90
22321;DHT22;11328;53.928;18.522;2022-09-09T16:24:23;16.60;99.90
22321;DHT22;11328;53.928;18.522;2022-09-09T16:26:52;16.60;99.90
22321;DHT22;11328;53.928;18.522;2022-09-09T16:29:22;16.60;99.90
22321;DHT22;11328;53.928;18.522;2022-09-09T16:31:49;16.50;99.90
22321;DHT22;11328;53.928;18.522;2022-09-09T16:34:17;16.60;99.90
22321;DHT22;11328;53.928;18.522;2022-09-09T16:36:46;16.50;99.90
22321;DHT22;11328;53.928;18.522;2022-09-09T16:39:17;16.50;99.90
22321;DHT22;11328;53.928;18.522;2022-09-09T16:41:47;16.40;99.90
22321;DHT22;11328;53.928;18.522;2022-09-09T16:44:16;16.50;99.90
22321;DHT22;11328;53.928;18.522;2022-09-09T16:46:46;16.40;99.90
22321;DHT22;11328;53.928;18.522;2022-09-09T16:49:15;16.50;99.90
22321;DHT22;11328;53.928;18.522;2022-09-09T16:51:44;16.40;99.90
22321;DHT22;11328;53.928;18.522;2022-09-09T16:54:16;16.40;99.90
22321;DHT22;11328;53.928;18.522;2022-09-09T16:56:46;16.40;99.90
22321;DHT22;11328;53.928;18.522;2022-09-09T16:59:16;16.40;99.90
22321;DHT22;11328;53.928;18.522;2022-09-09T17:01:46;16.40;99.90
22321;DHT22;11328;53.928;18.522;2022-09-09T17:04:17;16.40;99.90
22321;DHT22;11328;53.928;18.522;2022-09-09T17:06:52;16.40;99.90
22321;DHT22;11328;53.928;18.522;2022-09-09T17:09:21;16.40;99.90
22321;DHT22;11328;53.928;18.522;2022-09-09T17:11:49;16.40;99.90
22321;DHT22;11328;53.928;18.522;2022-09-09T17:14:19;16.40;99.90
22321;DHT22;11328;53.928;18.522;2022-09-09T17:16:48;16.40;99.90
22321;DHT22;11328;53.928;18.522;2022-09-09T17:19:15;16.30;99.90
22321;DHT22;11328;53.928;18.522;2022-09-09T17:21:42;16.30;99.90
22321;DHT22;11328;53.928;18.522;2022-09-09T17:24:29;16.30;99.90
22321;DHT22;11328;53.928;18.522;2022-09-09T17:26:57;16.30;99.90
22321;DHT22;11328;53.928;18.522;2022-09-09T17:29:24;16.30;99.90
22321;DHT22;11328;53.928;18.522;2022-09-09T17:31:52;16.40;99.90
22321;DHT22;11328;53.928;18.522;2022-09-09T17:34:19;16.40;99.90
22321;DHT22;11328;53.928;18.522;2022-09-09T17:36:46;16.40;99.90
22321;DHT22;11328;53.928;18.522;2022-09-09T17:39:14;16.30;99.90
22321;DHT22;11328;53.928;18.522;2022-09-09T17:41:41;16.30;99.90
22321;DHT22;11328;53.928;18.522;2022-09-09T17:44:09;16.30;99.90
22321;DHT22;11328;53.928;18.522;2022-09-09T17:46:40;16.30;99.90
22321;DHT22;11328;53.928;18.522;2022-09-09T17:49:14;16.30;99.90
22321;DHT22;11328;53.928;18.522;2022-09-09T17:51:43;16.30;99.90
22321;DHT22;11328;53.928;18.522;2022-09-09T17:54:15;16.20;99.90
22321;DHT22;11328;53.928;18.522;2022-09-09T17:56:46;16.20;99.90
22321;DHT22;11328;53.928;18.522;2022-09-09T17:59:16;16.20;99.90
22321;DHT22;11328;53.928;18.522;2022-09-09T18:01:46;16.30;99.90
22321;DHT22;11328;53.928;18.522;2022-09-09T18:04:18;16.30;99.90